Time;durP1;ratioP1;P1;durP2;ratioP2;P2;SDS_P1;SDS_P2;PMS_P1;PMS_P2;Temp;Humidity;BMP_temperature;BMP_pressure;BME280_temperature;BME280_humidity;BME280_pressure;Samples;Min_cycle;Max_cycle;Signal;HPM_P1;HPM_P2
2021/06/20 00:01:25;;;;;;;13.30;12.20;;;24.50;99.90;;;;;;4998244;28;20447;-86
2021/06/20 00:03:51;;;;;;;13.27;12.27;;;24.50;99.90;;;;;;4989195;28;20535;-86
2021/06/20 00:06:34;;;;;;;13.23;12.30;;;24.50;99.90;;;;;;4998338;28;20581;-86
2021/06/20 00:09:02;;;;;;;13.10;12.20;;;24.50;99.90;;;;;;4991044;28;20801;-86
2021/06/20 00:11:28;;;;;;;12.80;11.70;;;24.50;99.90;;;;;;4994073;28;21048;-86
2021/06/20 00:13:55;;;;;;;12.80;11.60;;;24.30;99.90;;;;;;4994881;28;20969;-86
2021/06/20 00:16:21;;;;;;;13.80;12.60;;;24.20;99.90;;;;;;4996030;28;20235;-86
2021/06/20 00:18:47;;;;;;;13.73;12.47;;;24.10;99.90;;;;;;4990592;28;20811;-86
2021/06/20 00:21:14;;;;;;;13.77;12.47;;;23.90;99.90;;;;;;4992872;28;20443;-86
2021/06/20 00:23:39;;;;;;;12.80;11.70;;;23.80;99.90;;;;;;4994173;28;20251;-86
2021/06/20 00:26:05;;;;;;;13.33;12.13;;;23.80;99.90;;;;;;4991825;28;20495;-86
2021/06/20 00:28:31;;;;;;;14.27;12.97;;;23.90;99.90;;;;;;4995650;28;20192;-86
2021/06/20 00:30:58;;;;;;;14.07;12.67;;;23.90;99.90;;;;;;4995245;28;20455;-87
2021/06/20 00:33:23;;;;;;;13.63;12.60;;;23.90;99.90;;;;;;4998625;28;20274;-87
2021/06/20 00:35:49;;;;;;;13.10;12.00;;;23.90;99.90;;;;;;5012072;28;20795;-86
2021/06/20 00:38:15;;;;;;;13.13;12.00;;;23.80;99.90;;;;;;4997374;28;20192;-87
2021/06/20 00:40:41;;;;;;;13.83;12.73;;;23.60;99.90;;;;;;4997940;28;21539;-86
2021/06/20 00:43:07;;;;;;;14.87;13.50;;;23.60;99.90;;;;;;4997164;28;20193;-86
2021/06/20 00:45:33;;;;;;;14.30;12.77;;;23.70;99.90;;;;;;5013170;28;20615;-86
2021/06/20 00:48:00;;;;;;;13.70;12.37;;;24.00;99.90;;;;;;5000570;28;20440;-86
2021/06/20 00:50:27;;;;;;;13.37;12.13;;;24.20;99.90;;;;;;4987856;28;20295;-86
2021/06/20 00:52:58;;;;;;;12.63;11.40;;;24.30;99.90;;;;;;4994796;28;20490;-86
2021/06/20 00:55:30;;;;;;;12.33;11.07;;;24.50;99.90;;;;;;4991974;28;20531;-86
2021/06/20 00:57:59;;;;;;;12.70;10.20;;;24.60;99.90;;;;;;4992421;28;20467;-86
2021/06/20 01:00:28;;;;;;;11.93;10.73;;;24.80;99.90;;;;;;4994797;28;20489;-86
2021/06/20 01:02:54;;;;;;;14.70;10.73;;;24.90;99.70;;;;;;5010824;28;20638;-86
2021/06/20 01:05:20;;;;;;;12.47;11.37;;;25.00;99.60;;;;;;4991002;28;20487;-86
2021/06/20 01:07:53;;;;;;;11.50;10.50;;;25.00;99.60;;;;;;4992937;28;20204;-86
2021/06/20 01:10:21;;;;;;;11.80;10.27;;;25.00;99.60;;;;;;5010204;28;20796;-86
2021/06/20 01:12:47;;;;;;;15.80;10.33;;;25.20;99.00;;;;;;4990586;28;20440;-86
2021/06/20 01:15:15;;;;;;;19.37;11.03;;;25.40;98.20;;;;;;5011752;28;20549;-86
2021/06/20 01:17:41;;;;;;;17.43;10.13;;;25.50;97.80;;;;;;4991257;28;20443;-87
2021/06/20 01:20:10;;;;;;;19.00;9.33;;;25.70;97.60;;;;;;4993977;28;20962;-86
2021/06/20 01:22:51;;;;;;;16.07;9.03;;;25.70;97.30;;;;;;4991122;28;20460;-87
2021/06/20 01:25:34;;;;;;;19.70;9.60;;;25.60;97.40;;;;;;4994667;28;20479;-87
2021/06/20 01:28:05;;;;;;;26.50;10.90;;;25.70;97.10;;;;;;4991548;28;20954;-86
2021/06/20 01:30:35;;;;;;;23.37;9.30;;;25.70;97.30;;;;;;5007272;28;20894;-86
2021/06/20 01:33:03;;;;;;;22.70;10.20;;;25.60;96.80;;;;;;4997163;28;20502;-86
2021/06/20 01:35:29;;;;;;;27.13;9.83;;;25.60;96.80;;;;;;4991492;28;20491;-86
2021/06/20 01:37:55;;;;;;;20.60;9.27;;;25.60;96.90;;;;;;4994767;28;21044;-86
2021/06/20 01:40:23;;;;;;;23.63;9.23;;;25.50;96.80;;;;;;4989731;28;21342;-86
2021/06/20 01:42:49;;;;;;;17.20;8.70;;;25.50;97.00;;;;;;5011435;28;20486;-86
2021/06/20 01:45:17;;;;;;;23.07;9.70;;;25.40;97.10;;;;;;4992439;28;20510;-86
2021/06/20 01:47:42;;;;;;;18.83;8.90;;;25.30;97.20;;;;;;4993301;28;20450;-86
2021/06/20 01:50:11;;;;;;;22.07;9.67;;;25.20;97.40;;;;;;4991229;28;20448;-85
2021/06/20 01:52:37;;;;;;;21.77;9.47;;;25.20;97.50;;;;;;4995864;28;20193;-86
2021/06/20 01:55:08;;;;;;;17.83;8.80;;;25.10;97.60;;;;;;4991517;28;20440;-86
2021/06/20 01:57:35;;;;;;;19.00;9.77;;;25.10;97.70;;;;;;5007776;28;21005;-86
2021/06/20 02:00:05;;;;;;;17.17;8.20;;;25.00;97.90;;;;;;5010173;28;20436;-86
2021/06/20 02:02:31;;;;;;;15.83;8.97;;;24.90;98.10;;;;;;4993674;28;20455;-86
2021/06/20 02:04:57;;;;;;;23.33;9.00;;;24.90;98.30;;;;;;4994090;28;20855;-87
2021/06/20 02:07:24;;;;;;;18.50;9.13;;;24.80;98.30;;;;;;4991393;28;20185;-86
2021/06/20 02:09:50;;;;;;;17.40;9.47;;;24.80;98.80;;;;;;4992419;28;20211;-87
2021/06/20 02:12:16;;;;;;;21.07;9.40;;;24.70;98.60;;;;;;4993199;28;20479;-86
2021/06/20 02:14:43;;;;;;;21.63;10.03;;;24.60;98.90;;;;;;4996446;28;20482;-86
2021/06/20 02:17:20;;;;;;;19.90;9.60;;;24.60;99.20;;;;;;4995981;28;20448;-86
2021/06/20 02:19:50;;;;;;;13.90;8.93;;;24.50;99.50;;;;;;4994833;28;20463;-86
2021/06/20 02:22:16;;;;;;;19.57;9.20;;;24.40;99.70;;;;;;4996227;28;20447;-86
2021/06/20 02:24:45;;;;;;;23.60;9.53;;;24.40;99.90;;;;;;5009012;28;20447;-86
2021/06/20 02:27:13;;;;;;;24.33;10.47;;;24.30;99.90;;;;;;4983239;28;20189;-86
2021/06/20 02:29:40;;;;;;;22.83;8.80;;;24.30;99.90;;;;;;4990144;28;20452;-86
2021/06/20 02:32:06;;;;;;;19.20;8.53;;;24.30;99.90;;;;;;4994837;28;20823;-86
2021/06/20 02:34:32;;;;;;;18.83;8.80;;;24.20;99.90;;;;;;5007159;28;20484;-86
2021/06/20 02:36:58;;;;;;;24.20;9.47;;;24.30;99.90;;;;;;4987398;28;20969;-86
2021/06/20 02:39:24;;;;;;;20.40;9.43;;;24.30;99.90;;;;;;4990488;28;20447;-86
2021/06/20 02:41:50;;;;;;;23.70;8.53;;;24.20;99.90;;;;;;4986443;28;20299;-87
2021/06/20 02:44:25;;;;;;;19.87;7.93;;;24.20;99.90;;;;;;4994057;28;20197;-86
2021/06/20 02:46:51;;;;;;;19.63;9.20;;;24.10;99.90;;;;;;4990433;28;20573;-87
2021/06/20 02:49:17;;;;;;;14.97;8.30;;;24.20;99.90;;;;;;4986461;28;20986;-86
2021/06/20 02:51:44;;;;;;;17.93;8.70;;;24.10;99.90;;;;;;4991388;28;20443;-86
2021/06/20 02:54:11;;;;;;;20.30;10.00;;;24.20;99.90;;;;;;4992437;28;20825;-86
2021/06/20 02:56:37;;;;;;;18.37;8.20;;;24.20;99.90;;;;;;5008339;28;20953;-86
2021/06/20 02:59:03;;;;;;;30.60;9.67;;;24.20;99.90;;;;;;4990659;28;20489;-87
2021/06/20 03:01:29;;;;;;;19.70;8.40;;;24.20;99.90;;;;;;5010136;28;20553;-86
2021/06/20 03:03:55;;;;;;;16.37;8.27;;;24.10;99.90;;;;;;4988850;28;20185;-86
2021/06/20 03:06:20;;;;;;;22.03;9.23;;;24.00;99.90;;;;;;4994976;28;20220;-86
2021/06/20 03:08:46;;;;;;;15.70;8.63;;;23.90;99.90;;;;;;5008390;28;20702;-86
2021/06/20 03:11:12;;;;;;;19.60;8.53;;;23.80;99.90;;;;;;4997084;28;20555;-86
2021/06/20 03:13:38;;;;;;;16.37;9.00;;;23.80;99.90;;;;;;4993517;28;20224;-86
2021/06/20 03:16:04;;;;;;;14.00;8.80;;;23.80;99.90;;;;;;5004330;28;21246;-86
2021/06/20 03:18:30;;;;;;;15.03;8.87;;;23.80;99.90;;;;;;4991861;28;20195;-86
2021/06/20 03:20:56;;;;;;;20.23;8.73;;;23.70;99.90;;;;;;4995393;28;20505;-86
2021/06/20 03:23:22;;;;;;;21.53;8.97;;;23.80;99.90;;;;;;4986710;28;20670;-86
2021/06/20 03:25:47;;;;;;;19.73;9.00;;;23.70;99.90;;;;;;4990431;28;20248;-86
2021/06/20 03:28:13;;;;;;;14.90;8.90;;;23.90;99.90;;;;;;4988061;28;20192;-86
2021/06/20 03:30:39;;;;;;;17.60;9.80;;;23.80;99.90;;;;;;4986762;28;20188;-86
2021/06/20 03:33:04;;;;;;;20.37;8.93;;;23.70;99.90;;;;;;5005199;28;20254;-86
2021/06/20 03:35:31;;;;;;;22.67;9.03;;;23.70;99.90;;;;;;4994393;28;20202;-85
2021/06/20 03:37:56;;;;;;;17.70;8.90;;;23.70;99.90;;;;;;4990477;28;20509;-86
2021/06/20 03:40:22;;;;;;;13.07;8.33;;;23.70;99.90;;;;;;5008769;28;20197;-86
2021/06/20 03:42:48;;;;;;;15.53;8.30;;;23.70;99.90;;;;;;5005519;28;20719;-86
2021/06/20 03:45:16;;;;;;;15.90;8.80;;;23.70;99.90;;;;;;4993929;28;20212;-85
2021/06/20 03:47:43;;;;;;;19.20;8.40;;;23.70;99.90;;;;;;5005427;28;20448;-85
2021/06/20 03:50:09;;;;;;;18.87;8.43;;;23.70;99.90;;;;;;4988903;28;20436;-85
2021/06/20 03:52:36;;;;;;;19.03;8.90;;;23.70;99.90;;;;;;4993560;28;20435;-86
2021/06/20 03:55:04;;;;;;;20.90;8.53;;;23.70;99.90;;;;;;4985812;28;20502;-86
2021/06/20 03:57:29;;;;;;;20.97;8.50;;;23.70;99.90;;;;;;4996205;28;20436;-86
2021/06/20 03:59:55;;;;;;;12.77;7.90;;;23.70;99.90;;;;;;4991565;28;20466;-86
2021/06/20 04:02:21;;;;;;;14.90;8.83;;;23.60;99.90;;;;;;4991128;28;20236;-85
2021/06/20 04:04:47;;;;;;;22.13;8.30;;;23.60;99.90;;;;;;4996116;28;20683;-86
2021/06/20 04:07:13;;;;;;;18.40;7.73;;;23.70;99.90;;;;;;4993997;28;20184;-86
2021/06/20 04:09:43;;;;;;;18.77;8.07;;;23.70;99.90;;;;;;4993327;28;20722;-85
2021/06/20 04:12:11;;;;;;;14.93;7.30;;;23.70;99.90;;;;;;4993366;28;20472;-86
2021/06/20 04:14:38;;;;;;;13.93;6.30;;;23.70;99.90;;;;;;4993105;28;20479;-85
2021/06/20 04:17:05;;;;;;;16.97;6.90;;;23.70;99.90;;;;;;4993125;28;20462;-85
2021/06/20 04:19:30;;;;;;;18.93;6.77;;;23.80;99.90;;;;;;4996271;28;20452;-86
2021/06/20 04:21:56;;;;;;;17.20;6.23;;;23.80;99.90;;;;;;4993606;28;20960;-86
2021/06/20 04:24:22;;;;;;;17.40;6.27;;;23.80;99.90;;;;;;4997431;28;20614;-85
2021/06/20 04:26:48;;;;;;;12.80;6.53;;;23.80;99.90;;;;;;4990015;28;20741;-85
2021/06/20 04:29:14;;;;;;;13.57;6.17;;;23.80;99.90;;;;;;4994981;28;20670;-85
2021/06/20 04:31:39;;;;;;;14.93;6.53;;;23.80;99.90;;;;;;4993576;28;20189;-85
2021/06/20 04:34:05;;;;;;;15.20;6.17;;;23.70;99.90;;;;;;4994767;28;20188;-86
2021/06/20 04:36:31;;;;;;;16.10;5.90;;;23.70;99.90;;;;;;4990629;28;20201;-85
2021/06/20 04:38:57;;;;;;;17.53;6.53;;;23.70;99.90;;;;;;4993135;28;20191;-85
2021/06/20 04:41:24;;;;;;;17.90;7.40;;;23.70;99.90;;;;;;4990656;28;20189;-85
2021/06/20 04:46:23;;;;;;;11.80;6.30;;;23.70;99.90;;;;;;4997789;28;20483;-85
2021/06/20 04:48:53;;;;;;;15.00;6.73;;;23.70;99.90;;;;;;5007047;28;20439;-85
2021/06/20 04:51:20;;;;;;;17.97;7.97;;;23.60;99.90;;;;;;4995163;28;20514;-86
2021/06/20 04:53:46;;;;;;;11.13;6.97;;;23.70;99.90;;;;;;4992075;28;20777;-86
2021/06/20 04:56:12;;;;;;;13.10;6.40;;;23.80;99.90;;;;;;5009987;28;20452;-85
2021/06/20 04:58:38;;;;;;;18.07;7.00;;;23.70;99.90;;;;;;4990391;28;20540;-85
2021/06/20 05:01:07;;;;;;;12.13;6.43;;;23.70;99.90;;;;;;5006206;28;20185;-85
2021/06/20 05:03:32;;;;;;;13.07;6.13;;;23.70;99.90;;;;;;5010505;28;20460;-85
2021/06/20 05:05:58;;;;;;;11.17;5.63;;;23.70;99.90;;;;;;4995716;28;20533;-86
2021/06/20 05:08:23;;;;;;;15.73;6.17;;;23.60;99.90;;;;;;4991642;28;20197;-85
2021/06/20 05:10:59;;;;;;;11.63;5.40;;;23.60;99.90;;;;;;5009114;28;20571;-86
2021/06/20 05:13:29;;;;;;;15.07;6.10;;;23.70;99.90;;;;;;5008748;28;20583;-86
2021/06/20 05:15:57;;;;;;;14.10;5.93;;;23.70;99.90;;;;;;4993898;28;20448;-86
2021/06/20 05:18:23;;;;;;;15.87;6.23;;;23.70;99.90;;;;;;4987484;28;20489;-85
2021/06/20 05:20:51;;;;;;;12.43;5.97;;;23.80;99.90;;;;;;4994768;28;20203;-86
2021/06/20 05:23:18;;;;;;;13.57;5.67;;;23.70;99.90;;;;;;5011011;28;20188;-85
2021/06/20 05:25:44;;;;;;;15.70;6.37;;;23.80;99.90;;;;;;4993250;28;20479;-85
2021/06/20 05:28:16;;;;;;;17.10;6.97;;;23.80;99.90;;;;;;4993470;28;20440;-86
2021/06/20 05:30:45;;;;;;;15.07;5.90;;;23.90;99.90;;;;;;5009238;28;21942;-86
2021/06/20 05:33:15;;;;;;;12.13;5.20;;;23.90;99.90;;;;;;4992289;28;20435;-85
2021/06/20 05:35:41;;;;;;;9.90;5.80;;;24.10;99.90;;;;;;4988975;28;20452;-86
2021/06/20 05:38:07;;;;;;;12.33;5.53;;;24.20;99.90;;;;;;5007769;28;20454;-85
2021/06/20 05:40:34;;;;;;;14.47;6.30;;;24.20;99.90;;;;;;4993229;28;20973;-86
2021/06/20 05:43:00;;;;;;;10.00;6.10;;;24.10;99.90;;;;;;5009986;28;20238;-85
2021/06/20 05:45:26;;;;;;;12.67;5.97;;;24.10;99.90;;;;;;5012200;28;20601;-85
2021/06/20 05:47:51;;;;;;;12.73;5.30;;;23.90;99.90;;;;;;4994028;28;20639;-86
2021/06/20 05:50:20;;;;;;;9.90;5.83;;;24.00;99.90;;;;;;4989811;28;20193;-86
2021/06/20 05:53:02;;;;;;;13.10;5.57;;;24.00;99.90;;;;;;4995213;28;20189;-86
2021/06/20 05:55:27;;;;;;;18.63;6.07;;;24.10;99.90;;;;;;4990266;28;20456;-86
2021/06/20 05:57:53;;;;;;;11.17;5.70;;;24.10;99.90;;;;;;4992146;28;20582;-85
2021/06/20 06:00:19;;;;;;;12.43;5.20;;;24.20;99.90;;;;;;5008501;28;20610;-85
2021/06/20 06:02:45;;;;;;;12.13;5.47;;;24.00;99.90;;;;;;4989362;28;20204;-85
2021/06/20 06:05:11;;;;;;;15.20;5.87;;;24.10;99.90;;;;;;4992498;28;20840;-86
2021/06/20 06:07:37;;;;;;;10.13;5.30;;;24.10;99.90;;;;;;4995537;28;20185;-86
2021/06/20 06:10:05;;;;;;;10.13;4.80;;;24.10;99.90;;;;;;4993484;28;20992;-86
2021/06/20 06:12:30;;;;;;;11.70;5.07;;;24.20;99.90;;;;;;4992574;28;20436;-85
2021/06/20 06:14:57;;;;;;;9.13;4.57;;;24.30;99.90;;;;;;4991766;28;20581;-86
2021/06/20 06:17:24;;;;;;;9.67;4.93;;;24.20;99.90;;;;;;4991641;28;20224;-86
2021/06/20 06:19:51;;;;;;;9.00;4.90;;;24.30;99.90;;;;;;4993870;28;20444;-86
2021/06/20 06:22:21;;;;;;;11.47;4.90;;;24.50;99.90;;;;;;4988908;28;20444;-86
2021/06/20 06:24:47;;;;;;;13.90;5.10;;;24.50;99.90;;;;;;5005864;28;20467;-86
2021/06/20 06:27:14;;;;;;;6.47;4.57;;;24.50;99.90;;;;;;4994957;28;20462;-86
2021/06/20 06:29:40;;;;;;;8.63;3.80;;;24.30;99.90;;;;;;4992237;28;20439;-86
2021/06/20 06:32:06;;;;;;;7.37;4.50;;;24.40;99.50;;;;;;4979612;28;20462;-86
2021/06/20 06:34:33;;;;;;;9.50;3.87;;;24.50;99.60;;;;;;5010288;28;20283;-86
2021/06/20 06:36:59;;;;;;;14.63;4.43;;;24.50;99.90;;;;;;4995505;28;20470;-86
2021/06/20 06:39:26;;;;;;;10.10;4.17;;;24.60;99.50;;;;;;4994011;28;20443;-85
2021/06/20 06:41:52;;;;;;;14.77;4.13;;;24.60;99.00;;;;;;5012625;28;20193;-85
2021/06/20 06:44:18;;;;;;;11.20;4.60;;;24.60;98.20;;;;;;4994837;28;20779;-85
2021/06/20 06:46:44;;;;;;;7.60;4.03;;;24.70;99.10;;;;;;4992764;28;20529;-85
2021/06/20 06:49:09;;;;;;;10.40;3.80;;;24.80;99.30;;;;;;4994427;28;20569;-85
2021/06/20 06:51:35;;;;;;;13.93;4.63;;;25.00;99.20;;;;;;4990826;28;20463;-85
2021/06/20 06:54:01;;;;;;;12.20;4.77;;;24.90;99.00;;;;;;4989790;28;20185;-85
2021/06/20 06:56:27;;;;;;;10.23;4.53;;;24.90;98.80;;;;;;4993735;28;20189;-85
2021/06/20 06:58:52;;;;;;;10.33;4.40;;;24.80;99.20;;;;;;5012760;28;20212;-84
2021/06/20 07:01:18;;;;;;;7.67;4.73;;;24.70;99.70;;;;;;4986792;28;20444;-85
2021/06/20 07:03:44;;;;;;;7.07;3.83;;;24.70;99.70;;;;;;4993916;28;20221;-85
2021/06/20 07:06:11;;;;;;;11.53;4.10;;;24.80;98.90;;;;;;5003717;28;20772;-85
2021/06/20 07:08:39;;;;;;;11.13;4.20;;;24.70;98.60;;;;;;4990697;28;20191;-84
2021/06/20 07:11:05;;;;;;;8.77;3.53;;;24.70;98.50;;;;;;5007836;28;20815;-85
2021/06/20 07:13:31;;;;;;;11.27;3.97;;;24.70;98.50;;;;;;4991754;28;20444;-85
2021/06/20 07:15:57;;;;;;;10.23;4.20;;;24.60;98.50;;;;;;4994871;28;20533;-84
2021/06/20 07:18:22;;;;;;;10.60;4.33;;;24.40;98.70;;;;;;5008899;28;20185;-85
2021/06/20 07:20:49;;;;;;;9.83;3.87;;;24.40;98.80;;;;;;4996020;28;20181;-85
2021/06/20 07:23:14;;;;;;;11.83;4.57;;;24.60;99.10;;;;;;5010713;28;20181;-85
2021/06/20 07:25:40;;;;;;;7.50;4.00;;;24.70;99.20;;;;;;4986484;28;20896;-85
2021/06/20 07:28:07;;;;;;;9.33;3.80;;;24.80;98.50;;;;;;4987979;28;20187;-85
2021/06/20 07:30:33;;;;;;;10.53;4.20;;;25.00;98.30;;;;;;5008349;28;20471;-84
2021/06/20 07:32:59;;;;;;;7.60;3.13;;;25.00;97.70;;;;;;5008793;28;20474;-84
2021/06/20 07:35:26;;;;;;;9.70;3.33;;;24.90;97.60;;;;;;5002551;28;20200;-84
2021/06/20 07:37:51;;;;;;;5.60;3.43;;;24.80;97.40;;;;;;5015317;28;20540;-84
2021/06/20 07:40:19;;;;;;;6.77;3.30;;;24.70;97.60;;;;;;4995352;28;20463;-84
2021/06/20 07:42:45;;;;;;;6.33;3.50;;;24.80;98.00;;;;;;4994797;28;20236;-84
2021/06/20 07:45:12;;;;;;;7.20;2.87;;;24.80;97.30;;;;;;4998430;28;20533;-85
2021/06/20 07:47:39;;;;;;;9.50;3.50;;;24.80;97.80;;;;;;4994450;28;20451;-84
2021/06/20 07:50:06;;;;;;;6.77;3.33;;;24.80;97.00;;;;;;4991413;28;21012;-85
2021/06/20 07:52:32;;;;;;;5.13;3.00;;;24.80;97.30;;;;;;4991878;28;20448;-84
2021/06/20 07:54:58;;;;;;;8.93;3.50;;;24.80;97.00;;;;;;4991594;28;20460;-85
2021/06/20 07:57:24;;;;;;;6.10;3.30;;;24.80;96.80;;;;;;4994711;28;20283;-85
2021/06/20 07:59:50;;;;;;;5.80;3.13;;;24.80;97.40;;;;;;4997045;28;20200;-86
2021/06/20 08:02:43;;;;;;;11.00;3.07;;;24.90;97.30;;;;;;4994157;28;20201;-91
2021/06/20 08:05:10;;;;;;;3.90;3.00;;;25.10;96.50;;;;;;4999208;28;20471;-92
2021/06/20 08:07:36;;;;;;;4.80;2.90;;;25.30;96.10;;;;;;4992499;28;20451;-89
2021/06/20 08:10:03;;;;;;;6.30;3.57;;;25.50;95.90;;;;;;4996230;28;21820;-91
2021/06/20 08:12:38;;;;;;;4.70;2.67;;;25.70;95.50;;;;;;4995011;28;20449;-90
2021/06/20 08:15:05;;;;;;;5.50;2.67;;;25.80;94.30;;;;;;4989775;28;20538;-90
2021/06/20 08:17:33;;;;;;;5.53;2.90;;;26.00;96.40;;;;;;5005190;28;20435;-91
2021/06/20 08:20:06;;;;;;;5.27;3.03;;;26.20;94.20;;;;;;4991402;28;20455;-91
2021/06/20 08:22:46;;;;;;;6.27;2.80;;;26.30;92.80;;;;;;4989804;28;20193;-90
2021/06/20 08:25:13;;;;;;;8.87;3.07;;;26.20;93.30;;;;;;4991187;28;20572;-91
2021/06/20 08:27:39;;;;;;;5.07;2.87;;;25.90;93.00;;;;;;5009042;28;20455;-90
2021/06/20 08:30:08;;;;;;;5.50;3.07;;;25.90;93.20;;;;;;4993686;28;20779;-90
2021/06/20 08:32:34;;;;;;;6.67;2.90;;;25.70;92.70;;;;;;5006935;28;20448;-91
2021/06/20 08:35:02;;;;;;;5.20;2.97;;;25.70;94.50;;;;;;4990302;28;20475;-91
2021/06/20 08:37:28;;;;;;;4.77;2.30;;;25.80;92.70;;;;;;4991758;28;21025;-91
2021/06/20 08:39:55;;;;;;;6.63;2.43;;;25.80;92.10;;;;;;5004812;28;20492;-90
2021/06/20 08:42:20;;;;;;;3.93;2.90;;;25.90;91.90;;;;;;4989930;28;20454;-91
2021/06/20 08:44:46;;;;;;;5.70;2.60;;;26.20;91.40;;;;;;5006099;28;20452;-92
2021/06/20 08:47:13;;;;;;;8.10;3.27;;;26.30;91.20;;;;;;5007692;28;20548;-91
2021/06/20 08:49:40;;;;;;;6.33;2.60;;;26.50;91.50;;;;;;4983857;28;20212;-91
2021/06/20 08:52:06;;;;;;;6.33;2.10;;;26.60;90.70;;;;;;4987000;28;20463;-91
2021/06/20 08:54:32;;;;;;;7.90;2.90;;;26.50;90.80;;;;;;4990265;28;20474;-91
2021/06/20 08:57:00;;;;;;;5.53;2.50;;;26.30;90.50;;;;;;5008535;28;20808;-90
2021/06/20 08:59:29;;;;;;;6.40;3.40;;;26.40;90.50;;;;;;4990915;28;20521;-91
2021/06/20 09:02:05;;;;;;;5.80;2.47;;;26.50;91.20;;;;;;4991845;28;20543;-91
2021/06/20 09:04:39;;;;;;;4.73;2.50;;;26.70;91.10;;;;;;5005708;28;20241;-92
2021/06/20 09:07:10;;;;;;;5.60;2.77;;;26.80;90.40;;;;;;4986565;28;20504;-90
2021/06/20 09:09:36;;;;;;;6.40;2.80;;;26.60;90.70;;;;;;5008856;28;20470;-90
2021/06/20 09:12:20;;;;;;;7.27;2.70;;;26.50;90.90;;;;;;4989069;28;20452;-90
2021/06/20 09:15:00;;;;;;;4.60;2.50;;;26.60;91.30;;;;;;5006918;28;20443;-90
2021/06/20 09:17:29;;;;;;;5.13;2.80;;;26.80;90.40;;;;;;4993235;28;21198;-90
2021/06/20 09:19:57;;;;;;;4.67;2.80;;;27.20;91.10;;;;;;4988681;28;20452;-90
2021/06/20 09:22:22;;;;;;;7.43;3.30;;;27.00;90.10;;;;;;5009607;28;20556;-91
2021/06/20 09:27:54;;;;;;;4.93;2.53;;;26.80;88.50;;;;;;4986472;28;20201;-91
2021/06/20 09:30:21;;;;;;;7.33;2.70;;;26.70;89.10;;;;;;4993350;28;20851;-90
2021/06/20 09:33:05;;;;;;;5.47;2.80;;;26.50;89.40;;;;;;4992755;28;20462;-90
2021/06/20 09:35:41;;;;;;;5.47;2.57;;;26.90;90.40;;;;;;4997214;28;20452;-90
2021/06/20 09:38:09;;;;;;;6.73;3.30;;;27.20;89.10;;;;;;5006825;28;20548;-91
2021/06/20 09:40:36;;;;;;;7.90;3.20;;;27.40;89.10;;;;;;4992189;28;20872;-90
2021/06/20 09:43:20;;;;;;;8.17;2.43;;;27.70;87.20;;;;;;5007950;28;20466;-91
2021/06/20 09:45:47;;;;;;;5.83;2.20;;;27.90;88.50;;;;;;5002768;28;20573;-91
2021/06/20 09:48:28;;;;;;;5.63;2.90;;;27.90;85.00;;;;;;4993228;28;20467;-91
2021/06/20 09:50:58;;;;;;;4.50;2.60;;;28.00;85.20;;;;;;4988725;28;20725;-91
2021/06/20 09:53:32;;;;;;;5.63;3.10;;;27.80;84.70;;;;;;4991443;28;20448;-91
2021/06/20 09:56:24;;;;;;;5.97;2.40;;;27.70;90.10;;;;;;5008113;28;20462;-91
2021/06/20 09:59:00;;;;;;;5.80;2.70;;;27.50;88.40;;;;;;4989711;28;20467;-90
2021/06/20 10:01:28;;;;;;;4.97;2.77;;;27.70;86.30;;;;;;4991461;28;20444;-90
2021/06/20 10:03:55;;;;;;;5.87;2.50;;;27.70;86.30;;;;;;4992289;28;20538;-91
2021/06/20 10:06:21;;;;;;;3.63;2.60;;;28.00;88.30;;;;;;4988767;28;20483;-91
2021/06/20 10:08:47;;;;;;;8.00;3.10;;;27.90;83.70;;;;;;4986428;28;20471;-90
2021/06/20 10:11:14;;;;;;;6.17;2.53;;;27.90;83.30;;;;;;5005793;28;20193;-91
2021/06/20 10:13:40;;;;;;;4.90;2.60;;;28.00;84.50;;;;;;5008864;28;20452;-90
2021/06/20 10:16:33;;;;;;;8.57;3.03;;;27.90;85.50;;;;;;5005137;28;20516;-90
2021/06/20 10:19:27;;;;;;;6.73;2.67;;;28.10;86.60;;;;;;5008319;28;20988;-90
2021/06/20 10:22:16;;;;;;;4.40;2.80;;;28.30;86.10;;;;;;4991495;28;20463;-92
2021/06/20 10:24:52;;;;;;;4.90;2.53;;;28.70;85.40;;;;;;4990011;28;20675;-84
2021/06/20 10:27:28;;;;;;;7.80;3.00;;;28.90;86.70;;;;;;4994019;28;21036;-84
2021/06/20 10:29:56;;;;;;;8.40;3.53;;;28.60;90.40;;;;;;4990153;28;20981;-84
2021/06/20 10:32:23;;;;;;;6.50;2.93;;;28.20;91.20;;;;;;5008089;28;20455;-84
2021/06/20 10:34:54;;;;;;;7.13;3.60;;;28.00;90.90;;;;;;4991404;28;20459;-84
2021/06/20 10:37:23;;;;;;;8.47;3.17;;;28.00;91.80;;;;;;4989144;28;20522;-84
2021/06/20 10:39:50;;;;;;;7.50;3.10;;;28.20;91.90;;;;;;4974973;28;20468;-84
2021/06/20 10:42:16;;;;;;;5.90;3.03;;;28.30;91.00;;;;;;4992404;28;20475;-84
2021/06/20 10:44:51;;;;;;;6.50;4.03;;;28.30;90.70;;;;;;5006034;28;20585;-84
2021/06/20 10:47:30;;;;;;;6.37;3.13;;;28.00;91.00;;;;;;5007305;28;20228;-84
2021/06/20 10:49:59;;;;;;;5.77;3.43;;;27.90;91.90;;;;;;4991276;28;20498;-84
2021/06/20 10:52:25;;;;;;;5.50;3.07;;;27.90;91.90;;;;;;4988653;28;20853;-84
2021/06/20 10:55:15;;;;;;;8.03;2.90;;;28.10;91.10;;;;;;4989404;28;20439;-84
2021/06/20 10:57:43;;;;;;;5.60;3.10;;;28.40;92.20;;;;;;4988944;28;20539;-84
2021/06/20 11:00:10;;;;;;;7.50;3.33;;;28.50;91.80;;;;;;4990930;28;21725;-84
2021/06/20 11:02:35;;;;;;;5.80;2.73;;;28.40;92.30;;;;;;4990948;28;20530;-84
2021/06/20 11:05:02;;;;;;;4.93;3.00;;;28.60;91.60;;;;;;4990099;28;21390;-84
2021/06/20 11:07:28;;;;;;;5.77;3.43;;;29.10;88.20;;;;;;4992315;28;20847;-84
2021/06/20 11:09:57;;;;;;;7.90;3.50;;;29.20;90.10;;;;;;5008359;28;20450;-84
2021/06/20 11:12:26;;;;;;;4.90;3.70;;;28.90;90.90;;;;;;4993299;28;20451;-84
2021/06/20 11:14:54;;;;;;;7.20;3.60;;;28.80;91.30;;;;;;4994359;28;20452;-84
2021/06/20 11:17:20;;;;;;;4.87;3.33;;;29.00;91.50;;;;;;4989663;28;20509;-84
2021/06/20 11:19:45;;;;;;;5.90;4.30;;;29.20;91.30;;;;;;4995229;28;20772;-84
2021/06/20 11:22:14;;;;;;;7.53;3.33;;;29.40;91.00;;;;;;4994129;28;20660;-85
2021/06/20 11:24:47;;;;;;;5.13;3.87;;;29.50;91.10;;;;;;4996089;28;20749;-84
2021/06/20 11:27:19;;;;;;;7.83;3.80;;;29.60;87.50;;;;;;4993350;28;20485;-84
2021/06/20 11:29:58;;;;;;;8.43;4.17;;;29.80;88.10;;;;;;4996312;28;21060;-84
2021/06/20 11:32:32;;;;;;;8.00;3.77;;;29.70;89.90;;;;;;4993850;28;20451;-84
2021/06/20 11:35:04;;;;;;;8.30;4.03;;;29.50;90.80;;;;;;4992947;28;20454;-84
2021/06/20 11:37:32;;;;;;;6.00;4.30;;;29.80;90.70;;;;;;5008483;28;20536;-84
2021/06/20 11:40:18;;;;;;;7.97;3.63;;;30.10;90.10;;;;;;4994118;28;20506;-84
2021/06/20 11:42:52;;;;;;;8.40;4.07;;;29.90;85.90;;;;;;4994084;28;20455;-84
2021/06/20 11:45:29;;;;;;;7.20;3.73;;;30.10;88.90;;;;;;5007377;28;20631;-84
2021/06/20 11:48:00;;;;;;;10.43;3.83;;;30.10;90.40;;;;;;4990552;28;20482;-84
2021/06/20 11:50:27;;;;;;;11.83;4.20;;;30.20;83.60;;;;;;4994085;28;20462;-84
2021/06/20 11:53:03;;;;;;;7.70;3.77;;;30.10;88.00;;;;;;5006753;28;20489;-84
2021/06/20 11:55:40;;;;;;;11.17;4.03;;;30.30;88.00;;;;;;4989580;28;20454;-85
2021/06/20 11:58:14;;;;;;;10.10;3.90;;;30.70;84.40;;;;;;5006578;28;20458;-85
2021/06/20 12:00:43;;;;;;;9.90;3.93;;;30.70;86.20;;;;;;4988789;28;20508;-85
2021/06/20 12:03:16;;;;;;;8.77;4.33;;;30.60;87.90;;;;;;5008362;28;20814;-85
2021/06/20 12:05:51;;;;;;;10.07;4.00;;;30.50;86.00;;;;;;4988865;28;20512;-85
2021/06/20 12:08:17;;;;;;;11.40;5.27;;;30.30;89.10;;;;;;4990659;28;20439;-84
2021/06/20 12:10:49;;;;;;;10.67;3.83;;;30.20;89.50;;;;;;5002753;28;20522;-85
2021/06/20 12:13:15;;;;;;;11.53;5.10;;;30.60;87.50;;;;;;4988421;28;20490;-84
2021/06/20 12:15:42;;;;;;;12.53;4.73;;;30.70;85.40;;;;;;4989715;28;21098;-85
2021/06/20 12:18:20;;;;;;;9.27;4.80;;;31.00;85.70;;;;;;4990793;28;20485;-84
2021/06/20 12:20:51;;;;;;;11.57;4.37;;;30.90;84.30;;;;;;4987140;28;20592;-84
2021/06/20 12:23:23;;;;;;;13.10;4.30;;;31.20;75.80;;;;;;4989851;28;20451;-85
2021/06/20 12:25:50;;;;;;;13.00;5.60;;;31.00;71.60;;;;;;4993413;28;21124;-84
2021/06/20 12:28:17;;;;;;;11.40;4.30;;;31.30;81.40;;;;;;4997285;28;20447;-85
2021/06/20 12:30:45;;;;;;;13.30;5.07;;;31.40;75.90;;;;;;4993809;28;20499;-84
2021/06/20 12:33:16;;;;;;;12.20;4.73;;;31.70;77.50;;;;;;4994463;28;20436;-85
2021/06/20 12:35:47;;;;;;;13.43;4.90;;;31.20;81.50;;;;;;4993126;28;20460;-84
2021/06/20 12:38:18;;;;;;;12.70;5.37;;;31.00;79.40;;;;;;4991734;28;20518;-85
2021/06/20 12:40:45;;;;;;;12.30;4.87;;;30.90;82.30;;;;;;5008543;28;20443;-85
2021/06/20 12:43:23;;;;;;;9.97;4.63;;;31.40;80.90;;;;;;5010359;28;20448;-85
2021/06/20 12:46:05;;;;;;;12.37;4.80;;;32.00;79.70;;;;;;5008470;28;20494;-84
2021/06/20 12:48:36;;;;;;;13.90;5.37;;;32.10;78.60;;;;;;4992936;28;20582;-84
2021/06/20 12:51:02;;;;;;;13.77;4.03;;;31.70;77.70;;;;;;4992992;28;21584;-85
2021/06/20 12:53:42;;;;;;;12.07;4.70;;;31.60;76.60;;;;;;4990475;28;20446;-85